Time;durP1;ratioP1;P1;durP2;ratioP2;P2;SDS_P1;SDS_P2;PMS_P1;PMS_P2;Temp;Humidity;BMP_temperature;BMP_pressure;BME280_temperature;BME280_humidity;BME280_pressure;Samples;Min_cycle;Max_cycle;Signal;HPM_P1;HPM_P2
2022/10/26 00:01:08;;;;;;;31.98;14.57;;;;;;;;;;5032841;28;20265;-65
2022/10/26 00:03:35;;;;;;;29.48;13.40;;;;;;;;;;5036708;28;20483;-65
2022/10/26 00:06:03;;;;;;;22.02;12.43;;;;;;;;;;5034377;28;20287;-65
2022/10/26 00:08:30;;;;;;;25.65;12.27;;;;;;;;;;5040268;28;20069;-65
2022/10/26 00:10:57;;;;;;;27.33;12.48;;;;;;;;;;5037406;28;20050;-65
2022/10/26 00:13:23;;;;;;;18.73;12.25;;;;;;;;;;5036164;28;20075;-65
2022/10/26 00:15:50;;;;;;;20.65;11.90;;;;;;;;;;5035406;28;20588;-65
2022/10/26 00:18:16;;;;;;;19.88;12.23;;;;;;;;;;5038236;28;20056;-65
2022/10/26 00:20:43;;;;;;;19.33;12.15;;;;;;;;;;5037845;28;20150;-65
2022/10/26 00:23:09;;;;;;;26.77;12.10;;;;;;;;;;5033440;28;20055;-65
2022/10/26 00:25:35;;;;;;;25.98;12.13;;;;;;;;;;5040021;28;20044;-65
2022/10/26 00:28:01;;;;;;;23.75;12.60;;;;;;;;;;5033655;28;20442;-65
2022/10/26 00:30:27;;;;;;;22.13;11.80;;;;;;;;;;5035830;28;20065;-65
2022/10/26 00:32:53;;;;;;;21.05;12.63;;;;;;;;;;5036082;28;20497;-65
2022/10/26 00:35:19;;;;;;;24.52;12.77;;;;;;;;;;5032513;28;20094;-65
2022/10/26 00:37:45;;;;;;;22.98;11.82;;;;;;;;;;5038113;28;20045;-65
2022/10/26 00:40:12;;;;;;;19.70;11.10;;;;;;;;;;5040859;28;20037;-65
2022/10/26 00:42:38;;;;;;;19.88;11.50;;;;;;;;;;5038584;28;20159;-65
2022/10/26 00:45:15;;;;;;;20.73;11.20;;;;;;;;;;5037184;28;20076;-65
2022/10/26 00:47:43;;;;;;;20.80;11.20;;;;;;;;;;5029262;28;20910;-65
2022/10/26 00:50:11;;;;;;;26.05;11.82;;;;;;;;;;5032816;28;20163;-65
2022/10/26 00:52:37;;;;;;;25.48;13.32;;;;;;;;;;5036840;28;20045;-65
2022/10/26 00:55:04;;;;;;;21.27;12.02;;;;;;;;;;5067080;28;20210;-65
2022/10/26 00:57:31;;;;;;;21.83;10.98;;;;;;;;;;5066526;28;20666;-65
2022/10/26 00:59:58;;;;;;;20.77;11.98;;;;;;;;;;5034302;28;20068;-65
2022/10/26 01:02:24;;;;;;;21.80;11.68;;;;;;;;;;5029261;28;20086;-65
2022/10/26 01:04:51;;;;;;;21.85;12.77;;;;;;;;;;5039076;28;20128;-65
2022/10/26 01:07:17;;;;;;;23.13;12.68;;;;;;;;;;5038605;28;20487;-64
2022/10/26 01:09:43;;;;;;;18.33;11.65;;;;;;;;;;5042715;28;20071;-65
2022/10/26 01:12:09;;;;;;;25.33;12.55;;;;;;;;;;5043315;28;20037;-65
2022/10/26 01:14:35;;;;;;;15.80;10.85;;;;;;;;;;5041170;28;20067;-65
2022/10/26 01:17:12;;;;;;;26.30;12.07;;;;;;;;;;5071785;28;20092;-65
2022/10/26 01:19:52;;;;;;;19.17;10.93;;;;;;;;;;5039554;28;20055;-65
2022/10/26 01:22:21;;;;;;;20.73;11.35;;;;;;;;;;5042481;28;20056;-65
2022/10/26 01:24:57;;;;;;;19.48;10.93;;;;;;;;;;5039881;28;20052;-65
2022/10/26 01:27:23;;;;;;;21.23;11.07;;;;;;;;;;5033909;28;20052;-65
2022/10/26 01:30:09;;;;;;;25.13;11.63;;;;;;;;;;5038163;28;20040;-65
2022/10/26 01:32:40;;;;;;;18.92;11.48;;;;;;;;;;5033583;28;20409;-65
2022/10/26 01:35:09;;;;;;;19.77;11.93;;;;;;;;;;5042603;28;20049;-65
2022/10/26 01:37:38;;;;;;;17.20;11.23;;;;;;;;;;5036165;28;20079;-65
2022/10/26 01:43:30;;;;;;;23.40;11.07;;;;;;;;;;5047872;28;20098;-65
2022/10/26 01:45:56;;;;;;;19.33;10.93;;;;;;;;;;5071797;28;20143;-65
2022/10/26 01:48:25;;;;;;;21.10;11.45;;;;;;;;;;5040975;28;20049;-65
2022/10/26 01:50:52;;;;;;;21.17;12.13;;;;;;;;;;5038290;28;20056;-65
2022/10/26 01:53:19;;;;;;;19.98;11.70;;;;;;;;;;5032551;28;20076;-65
2022/10/26 01:55:50;;;;;;;22.33;11.98;;;;;;;;;;5029216;28;20149;-65
2022/10/26 01:58:19;;;;;;;19.10;10.65;;;;;;;;;;5039216;28;20048;-65
2022/10/26 02:00:53;;;;;;;23.15;12.93;;;;;;;;;;5037928;28;20053;-65
2022/10/26 02:03:22;;;;;;;19.02;11.27;;;;;;;;;;5036563;28;20395;-65
2022/10/26 02:05:55;;;;;;;20.50;11.18;;;;;;;;;;5033250;28;20041;-65
2022/10/26 02:08:27;;;;;;;24.35;11.63;;;;;;;;;;5036693;28;20056;-65
2022/10/26 02:11:01;;;;;;;17.92;11.73;;;;;;;;;;5037890;28;20087;-65
2022/10/26 02:13:42;;;;;;;20.45;11.43;;;;;;;;;;5066190;28;20476;-65
2022/10/26 02:16:15;;;;;;;19.17;11.38;;;;;;;;;;5038266;28;20098;-65
2022/10/26 02:18:47;;;;;;;23.70;12.13;;;;;;;;;;5036878;28;20064;-65
2022/10/26 02:21:16;;;;;;;21.52;11.20;;;;;;;;;;5033807;28;20187;-65
2022/10/26 02:23:45;;;;;;;17.33;11.52;;;;;;;;;;5031757;28;20041;-65
2022/10/26 02:26:13;;;;;;;21.38;11.48;;;;;;;;;;5034564;28;20053;-65
2022/10/26 02:28:43;;;;;;;21.35;11.35;;;;;;;;;;5034919;28;20048;-65
2022/10/26 02:31:10;;;;;;;19.48;12.07;;;;;;;;;;5037194;28;20045;-65
2022/10/26 02:33:38;;;;;;;19.75;11.70;;;;;;;;;;5032359;28;20087;-65
2022/10/26 02:36:06;;;;;;;26.38;11.98;;;;;;;;;;5039032;28;20069;-65
2022/10/26 02:38:34;;;;;;;21.40;12.77;;;;;;;;;;5040774;28;21264;-65
2022/10/26 02:41:00;;;;;;;22.27;12.25;;;;;;;;;;5047215;28;20048;-65
2022/10/26 02:43:27;;;;;;;23.08;12.23;;;;;;;;;;5035047;28;20146;-65
2022/10/26 02:45:56;;;;;;;22.98;11.88;;;;;;;;;;5033228;28;20045;-65
2022/10/26 02:48:23;;;;;;;19.58;11.75;;;;;;;;;;5036575;28;21769;-65
2022/10/26 02:50:58;;;;;;;18.30;11.32;;;;;;;;;;5068177;28;20089;-65
2022/10/26 02:53:28;;;;;;;25.02;12.38;;;;;;;;;;5035765;28;20493;-65
2022/10/26 02:55:54;;;;;;;18.60;12.35;;;;;;;;;;5067619;28;20492;-65
2022/10/26 02:58:28;;;;;;;21.40;11.65;;;;;;;;;;5033183;28;20051;-65
2022/10/26 03:00:55;;;;;;;21.13;12.55;;;;;;;;;;5036827;28;20051;-65
2022/10/26 03:03:21;;;;;;;22.98;12.48;;;;;;;;;;5036660;28;20231;-65
2022/10/26 03:05:47;;;;;;;20.15;12.65;;;;;;;;;;5034178;28;20040;-65
2022/10/26 03:08:13;;;;;;;24.98;12.68;;;;;;;;;;5037981;28;20528;-65
2022/10/26 03:10:41;;;;;;;28.50;12.82;;;;;;;;;;5041459;28;20059;-65
2022/10/26 03:13:08;;;;;;;21.08;12.73;;;;;;;;;;5038081;28;20059;-65
2022/10/26 03:15:34;;;;;;;24.02;12.48;;;;;;;;;;5036028;28;20051;-65
2022/10/26 03:18:00;;;;;;;21.42;12.82;;;;;;;;;;5038223;28;20397;-65
2022/10/26 03:20:27;;;;;;;22.67;14.07;;;;;;;;;;5040054;28;20056;-65
2022/10/26 03:22:53;;;;;;;25.15;14.88;;;;;;;;;;5038107;28;21906;-65
2022/10/26 03:25:19;;;;;;;23.02;13.88;;;;;;;;;;5038611;28;20421;-65
2022/10/26 03:27:45;;;;;;;25.52;15.13;;;;;;;;;;5038463;28;20067;-65
2022/10/26 03:30:11;;;;;;;34.58;15.35;;;;;;;;;;5039672;28;20057;-65
2022/10/26 03:32:38;;;;;;;26.85;16.17;;;;;;;;;;5040632;28;20033;-65
2022/10/26 03:35:04;;;;;;;26.63;16.33;;;;;;;;;;5038054;28;20732;-65
2022/10/26 03:37:30;;;;;;;22.95;15.88;;;;;;;;;;5036008;28;20511;-65
2022/10/26 03:39:57;;;;;;;27.92;15.73;;;;;;;;;;5033729;28;20056;-65
2022/10/26 03:42:23;;;;;;;29.45;15.55;;;;;;;;;;5031954;28;20064;-65
2022/10/26 03:44:49;;;;;;;29.50;17.33;;;;;;;;;;5035144;28;20048;-65
2022/10/26 03:47:15;;;;;;;26.45;16.42;;;;;;;;;;5039600;28;20155;-65
2022/10/26 03:49:41;;;;;;;24.05;16.67;;;;;;;;;;5040211;28;20476;-65
2022/10/26 03:52:07;;;;;;;32.55;18.20;;;;;;;;;;5039960;28;20053;-65
2022/10/26 03:54:33;;;;;;;26.98;17.98;;;;;;;;;;5043819;28;20109;-65
2022/10/26 03:57:00;;;;;;;28.55;17.50;;;;;;;;;;5044607;28;20404;-65
2022/10/26 03:59:26;;;;;;;24.95;17.50;;;;;;;;;;5038973;28;20045;-65
2022/10/26 04:01:52;;;;;;;32.33;18.05;;;;;;;;;;5035639;28;20060;-65
2022/10/26 04:04:18;;;;;;;30.73;19.20;;;;;;;;;;5035811;28;20048;-65
2022/10/26 04:06:44;;;;;;;29.83;18.42;;;;;;;;;;5040294;28;20033;-65
2022/10/26 04:09:10;;;;;;;28.27;17.15;;;;;;;;;;5071929;28;20059;-65
2022/10/26 04:11:36;;;;;;;28.80;17.95;;;;;;;;;;5040085;28;20159;-65
2022/10/26 04:14:02;;;;;;;29.85;18.08;;;;;;;;;;5038512;28;20397;-65
2022/10/26 04:16:29;;;;;;;31.77;18.52;;;;;;;;;;5036242;28;20073;-65
2022/10/26 04:18:55;;;;;;;29.30;17.23;;;;;;;;;;5040414;28;20033;-65
2022/10/26 04:21:21;;;;;;;32.30;19.08;;;;;;;;;;5035780;28;20094;-65
2022/10/26 04:23:47;;;;;;;31.23;19.38;;;;;;;;;;5038505;28;21012;-65
2022/10/26 04:26:13;;;;;;;26.08;18.52;;;;;;;;;;5033502;28;20736;-65
2022/10/26 04:28:39;;;;;;;28.00;18.40;;;;;;;;;;5034736;28;20457;-65
2022/10/26 04:31:05;;;;;;;27.98;17.95;;;;;;;;;;5039046;28;20047;-65
2022/10/26 04:33:31;;;;;;;27.85;19.17;;;;;;;;;;5039588;28;20037;-67
2022/10/26 04:35:59;;;;;;;27.63;17.88;;;;;;;;;;5024316;28;20052;-65
2022/10/26 04:38:25;;;;;;;30.67;18.60;;;;;;;;;;5040884;28;20109;-65
2022/10/26 04:40:52;;;;;;;26.25;18.95;;;;;;;;;;5034179;28;20940;-65
2022/10/26 04:43:18;;;;;;;29.80;18.90;;;;;;;;;;5039872;28;20392;-65
2022/10/26 04:45:44;;;;;;;31.70;21.13;;;;;;;;;;5038415;28;20144;-65
2022/10/26 04:48:11;;;;;;;32.97;18.88;;;;;;;;;;5038872;28;20121;-65
2022/10/26 04:50:38;;;;;;;31.25;18.73;;;;;;;;;;5034025;28;20044;-64
2022/10/26 04:53:04;;;;;;;30.05;18.75;;;;;;;;;;5036001;28;20602;-65
2022/10/26 04:55:31;;;;;;;28.42;19.23;;;;;;;;;;5035866;28;20061;-65
2022/10/26 04:57:57;;;;;;;28.15;17.95;;;;;;;;;;5070836;28;20388;-65
2022/10/26 05:00:23;;;;;;;32.35;19.15;;;;;;;;;;5037958;28;20041;-65
2022/10/26 05:02:49;;;;;;;28.42;19.75;;;;;;;;;;5065501;28;20511;-65
2022/10/26 05:05:15;;;;;;;34.65;20.08;;;;;;;;;;5038127;28;20045;-65
2022/10/26 05:07:42;;;;;;;35.00;19.92;;;;;;;;;;5043659;28;20045;-65
2022/10/26 05:10:08;;;;;;;27.55;19.02;;;;;;;;;;5040192;28;20520;-65
2022/10/26 05:12:35;;;;;;;28.73;19.25;;;;;;;;;;5039824;28;20094;-65
2022/10/26 05:15:01;;;;;;;33.15;19.58;;;;;;;;;;5044319;28;20091;-65
2022/10/26 05:17:27;;;;;;;29.88;19.05;;;;;;;;;;5039359;28;20096;-65
2022/10/26 05:19:56;;;;;;;35.88;19.60;;;;;;;;;;5053890;28;20492;-66
2022/10/26 05:22:23;;;;;;;31.08;18.67;;;;;;;;;;5038515;28;20055;-65
2022/10/26 05:24:49;;;;;;;27.70;18.98;;;;;;;;;;5069418;28;20048;-65
2022/10/26 05:27:15;;;;;;;30.15;18.70;;;;;;;;;;5040799;28;20045;-65
2022/10/26 05:29:41;;;;;;;29.75;18.60;;;;;;;;;;5036071;28;20056;-65
2022/10/26 05:32:08;;;;;;;28.83;17.90;;;;;;;;;;5040994;28;20049;-65
2022/10/26 05:34:34;;;;;;;29.25;18.73;;;;;;;;;;5040855;28;20565;-66
2022/10/26 05:37:00;;;;;;;33.53;18.95;;;;;;;;;;5050598;28;20055;-66
2022/10/26 05:39:26;;;;;;;36.60;18.60;;;;;;;;;;5051579;28;20052;-65
2022/10/26 05:41:52;;;;;;;26.70;18.38;;;;;;;;;;5046684;28;20048;-65
2022/10/26 05:44:18;;;;;;;30.13;18.85;;;;;;;;;;5082476;28;20044;-65
2022/10/26 05:46:46;;;;;;;29.80;18.35;;;;;;;;;;5050172;28;20102;-66
2022/10/26 05:49:12;;;;;;;34.78;18.27;;;;;;;;;;5044061;28;20076;-65
2022/10/26 05:51:38;;;;;;;31.95;18.23;;;;;;;;;;5042498;28;20052;-65
2022/10/26 05:54:04;;;;;;;29.80;18.08;;;;;;;;;;5070623;28;20496;-65
2022/10/26 05:56:35;;;;;;;36.17;18.30;;;;;;;;;;5041811;28;20041;-65
2022/10/26 05:59:01;;;;;;;28.50;17.98;;;;;;;;;;5078948;28;20037;-65
2022/10/26 06:01:37;;;;;;;25.83;17.20;;;;;;;;;;5033484;28;20053;-65
2022/10/26 06:04:14;;;;;;;32.53;17.77;;;;;;;;;;5045338;28;20045;-65
2022/10/26 06:06:44;;;;;;;28.40;17.25;;;;;;;;;;5043724;28;20140;-66
2022/10/26 06:09:11;;;;;;;30.48;18.65;;;;;;;;;;5041227;28;20128;-65
2022/10/26 06:11:37;;;;;;;25.70;18.10;;;;;;;;;;5039513;28;20107;-65
2022/10/26 06:14:03;;;;;;;28.65;17.63;;;;;;;;;;5044518;28;20123;-65
2022/10/26 06:16:39;;;;;;;29.52;17.73;;;;;;;;;;5042415;28;20420;-65
2022/10/26 06:19:11;;;;;;;27.35;17.02;;;;;;;;;;5074020;28;20048;-66
2022/10/26 06:21:44;;;;;;;23.70;16.92;;;;;;;;;;5071243;28;20123;-65
2022/10/26 06:24:20;;;;;;;23.38;15.73;;;;;;;;;;5043881;28;20140;-65
2022/10/26 06:26:54;;;;;;;21.75;15.50;;;;;;;;;;5041696;28;20053;-65
2022/10/26 06:29:20;;;;;;;;;;;;;;;;;;5076466;28;20541;-65
2022/10/26 06:31:47;;;;;;;20.88;14.55;;;;;;;;;;5043458;28;20031;-66
2022/10/26 06:34:16;;;;;;;23.48;16.55;;;;;;;;;;5044783;28;20146;-65
2022/10/26 06:36:43;;;;;;;28.35;15.98;;;;;;;;;;5046003;28;20128;-65
2022/10/26 06:39:10;;;;;;;22.90;16.38;;;;;;;;;;5077024;28;20041;-65
2022/10/26 06:41:37;;;;;;;24.02;16.13;;;;;;;;;;5043220;28;20357;-65
2022/10/26 06:44:04;;;;;;;29.63;16.83;;;;;;;;;;5049012;28;20029;-65
2022/10/26 06:46:30;;;;;;;27.27;16.05;;;;;;;;;;5044456;28;20044;-65
2022/10/26 06:49:15;;;;;;;25.33;14.70;;;;;;;;;;5047314;28;20224;-65
2022/10/26 06:51:45;;;;;;;24.77;14.98;;;;;;;;;;5033285;28;20072;-65
2022/10/26 06:54:15;;;;;;;26.67;16.60;;;;;;;;;;5037976;28;20102;-65
2022/10/26 06:56:42;;;;;;;23.65;15.05;;;;;;;;;;5040122;28;20346;-65
2022/10/26 06:59:14;;;;;;;31.05;15.45;;;;;;;;;;5041006;28;20045;-65
2022/10/26 07:01:40;;;;;;;25.50;15.70;;;;;;;;;;5040482;28;20132;-65
2022/10/26 07:04:06;;;;;;;26.40;16.75;;;;;;;;;;5070231;28;20118;-65
2022/10/26 07:06:32;;;;;;;29.83;15.55;;;;;;;;;;5045004;28;20116;-65
2022/10/26 07:08:58;;;;;;;24.65;14.85;;;;;;;;;;5072531;28;20898;-65
2022/10/26 07:11:25;;;;;;;24.25;15.57;;;;;;;;;;5045007;28;20463;-65
2022/10/26 07:13:51;;;;;;;22.35;14.75;;;;;;;;;;5042892;28;20345;-65
2022/10/26 07:16:17;;;;;;;25.60;14.10;;;;;;;;;;5041157;28;20049;-65
2022/10/26 07:18:43;;;;;;;30.08;16.65;;;;;;;;;;5043325;28;20041;-65
2022/10/26 07:21:09;;;;;;;21.65;13.98;;;;;;;;;;5043070;28;20169;-65
2022/10/26 07:23:35;;;;;;;24.23;14.40;;;;;;;;;;5044808;28;20072;-65
2022/10/26 07:26:01;;;;;;;25.02;15.15;;;;;;;;;;5043193;28;20182;-65
2022/10/26 07:28:28;;;;;;;25.73;15.68;;;;;;;;;;5042948;28;20041;-65
2022/10/26 07:30:54;;;;;;;23.73;14.82;;;;;;;;;;5043537;28;20076;-65
2022/10/26 07:33:20;;;;;;;25.60;14.00;;;;;;;;;;5043652;28;20048;-65
2022/10/26 07:35:46;;;;;;;25.08;14.98;;;;;;;;;;5044979;28;20048;-65
2022/10/26 07:38:13;;;;;;;19.50;14.05;;;;;;;;;;5054623;28;20041;-65
2022/10/26 07:40:39;;;;;;;24.75;12.82;;;;;;;;;;5042383;28;20109;-66
2022/10/26 07:43:05;;;;;;;25.13;14.27;;;;;;;;;;5039296;28;20052;-66
2022/10/26 07:45:31;;;;;;;23.67;13.60;;;;;;;;;;5074843;28;20106;-66
2022/10/26 07:47:57;;;;;;;16.15;12.02;;;;;;;;;;5040948;28;20041;-66
2022/10/26 07:50:24;;;;;;;27.42;13.70;;;;;;;;;;5040919;28;20071;-66
2022/10/26 07:52:50;;;;;;;21.05;12.63;;;;;;;;;;5039142;28;20116;-65
2022/10/26 07:55:17;;;;;;;25.35;12.40;;;;;;;;;;5040952;28;20041;-66
2022/10/26 07:57:43;;;;;;;23.20;12.52;;;;;;;;;;5041330;28;20083;-66
2022/10/26 08:00:09;;;;;;;21.52;11.80;;;;;;;;;;5076079;28;20068;-66
2022/10/26 08:02:36;;;;;;;19.73;10.75;;;;;;;;;;5042224;28;20476;-65
2022/10/26 08:05:02;;;;;;;18.23;11.18;;;;;;;;;;5040252;28;20080;-65
2022/10/26 08:07:28;;;;;;;14.77;10.15;;;;;;;;;;5042435;28;20052;-66
2022/10/26 08:09:54;;;;;;;16.80;9.55;;;;;;;;;;5042896;28;20140;-66
2022/10/26 08:12:21;;;;;;;21.58;10.40;;;;;;;;;;5041754;28;20048;-66
2022/10/26 08:14:47;;;;;;;16.10;9.18;;;;;;;;;;5039294;28;20124;-66
2022/10/26 08:17:13;;;;;;;15.40;9.02;;;;;;;;;;5036040;28;20052;-66
2022/10/26 08:19:39;;;;;;;17.80;9.15;;;;;;;;;;5040253;28;20052;-66
2022/10/26 08:22:05;;;;;;;20.88;9.27;;;;;;;;;;5043140;28;20131;-66
2022/10/26 08:24:32;;;;;;;14.13;8.13;;;;;;;;;;5042101;28;20087;-66
2022/10/26 08:26:58;;;;;;;15.40;8.45;;;;;;;;;;5042998;28;20047;-66
2022/10/26 08:29:24;;;;;;;15.38;7.63;;;;;;;;;;5042620;28;20132;-66
2022/10/26 08:31:50;;;;;;;14.93;8.52;;;;;;;;;;5041660;28;20048;-65
2022/10/26 08:34:16;;;;;;;13.25;8.15;;;;;;;;;;5046670;28;20049;-66
2022/10/26 08:36:43;;;;;;;17.52;8.60;;;;;;;;;;5043420;28;20046;-65
2022/10/26 08:39:09;;;;;;;14.88;7.43;;;;;;;;;;5042728;28;20403;-65
2022/10/26 08:41:37;;;;;;;12.32;7.60;;;;;;;;;;5074083;28;20527;-65
2022/10/26 08:44:11;;;;;;;11.88;7.07;;;;;;;;;;5043171;28;20400;-65
2022/10/26 08:46:41;;;;;;;11.13;7.40;;;;;;;;;;5078424;28;20057;-65
2022/10/26 08:49:19;;;;;;;10.90;7.50;;;;;;;;;;5045834;28;20515;-65
2022/10/26 08:51:47;;;;;;;12.73;6.85;;;;;;;;;;5044444;28;20037;-65
2022/10/26 08:54:15;;;;;;;12.88;7.38;;;;;;;;;;5044235;28;20053;-66
2022/10/26 08:56:43;;;;;;;14.18;7.07;;;;;;;;;;5043631;28;20055;-66
2022/10/26 08:59:14;;;;;;;13.10;7.47;;;;;;;;;;5042707;28;20043;-65
2022/10/26 09:01:40;;;;;;;14.88;7.63;;;;;;;;;;5044749;28;20132;-65
2022/10/26 09:04:09;;;;;;;12.75;7.20;;;;;;;;;;5043850;28;20098;-66
2022/10/26 09:06:45;;;;;;;12.65;7.43;;;;;;;;;;5044820;28;20542;-65
2022/10/26 09:09:21;;;;;;;12.55;7.50;;;;;;;;;;5045642;28;20041;-66
2022/10/26 09:12:04;;;;;;;17.27;7.18;;;;;;;;;;5077469;28;20041;-65
2022/10/26 09:14:30;;;;;;;14.77;7.50;;;;;;;;;;5045177;28;20041;-65
2022/10/26 09:17:01;;;;;;;10.73;5.32;;;;;;;;;;5044081;28;21014;-66
2022/10/26 09:19:39;;;;;;;12.82;6.28;;;;;;;;;;5042579;28;20049;-66
2022/10/26 09:22:11;;;;;;;12.32;6.10;;;;;;;;;;5040754;28;20052;-65
2022/10/26 09:24:48;;;;;;;14.68;5.57;;;;;;;;;;5041818;28;20057;-66
2022/10/26 09:27:28;;;;;;;11.25;5.65;;;;;;;;;;5043451;28;20147;-66
2022/10/26 09:29:55;;;;;;;12.45;6.60;;;;;;;;;;5044327;28;20118;-66
2022/10/26 09:32:28;;;;;;;13.57;5.65;;;;;;;;;;5044848;28;20094;-66
2022/10/26 09:34:57;;;;;;;9.15;5.32;;;;;;;;;;5042984;28;20053;-66
2022/10/26 09:37:27;;;;;;;15.02;5.38;;;;;;;;;;5044056;28;20122;-66
2022/10/26 09:40:08;;;;;;;12.93;5.53;;;;;;;;;;5044751;28;20053;-66
2022/10/26 09:42:54;;;;;;;13.60;5.65;;;;;;;;;;5075163;28;20037;-66
2022/10/26 09:45:22;;;;;;;9.55;5.40;;;;;;;;;;5044318;28;20172;-66
2022/10/26 09:47:51;;;;;;;11.25;5.15;;;;;;;;;;5043716;28;20124;-66
2022/10/26 09:50:22;;;;;;;13.50;5.60;;;;;;;;;;5026554;28;20128;-66
2022/10/26 09:52:48;;;;;;;7.53;4.68;;;;;;;;;;5043316;28;20119;-66
2022/10/26 09:55:14;;;;;;;8.75;3.90;;;;;;;;;;5042137;28;20045;-66
2022/10/26 09:57:44;;;;;;;14.45;4.43;;;;;;;;;;5044024;28;20045;-66
2022/10/26 10:00:12;;;;;;;12.88;5.22;;;;;;;;;;5044239;28;20051;-66
2022/10/26 10:02:42;;;;;;;13.88;4.82;;;;;;;;;;5043546;28;20040;-66
2022/10/26 10:05:20;;;;;;;11.57;5.00;;;;;;;;;;5041441;28;20041;-66
2022/10/26 10:07:46;;;;;;;9.90;4.40;;;;;;;;;;5041896;28;20414;-66
2022/10/26 10:10:17;;;;;;;8.85;4.30;;;;;;;;;;5040581;28;20063;-66
2022/10/26 10:12:44;;;;;;;12.88;4.78;;;;;;;;;;5044263;28;20041;-66
2022/10/26 10:15:17;;;;;;;11.40;4.97;;;;;;;;;;5042406;28;20094;-66
2022/10/26 10:17:48;;;;;;;15.70;4.65;;;;;;;;;;5041439;28;20490;-66
2022/10/26 10:20:17;;;;;;;9.80;3.72;;;;;;;;;;5043142;28;20041;-65
2022/10/26 10:23:00;;;;;;;9.50;3.42;;;;;;;;;;5041692;28;20395;-65
2022/10/26 10:25:32;;;;;;;9.43;3.95;;;;;;;;;;5059860;28;20243;-65
2022/10/26 10:27:58;;;;;;;7.75;3.50;;;;;;;;;;5042330;28;20396;-65
2022/10/26 10:30:28;;;;;;;9.57;3.63;;;;;;;;;;5074111;28;20045;-65
2022/10/26 10:33:05;;;;;;;6.75;2.95;;;;;;;;;;5039817;28;20037;-65
2022/10/26 10:35:31;;;;;;;10.18;3.20;;;;;;;;;;5043888;28;20055;-65
2022/10/26 10:37:57;;;;;;;11.00;3.42;;;;;;;;;;5039961;28;20057;-65
2022/10/26 10:40:25;;;;;;;6.78;3.80;;;;;;;;;;5043623;28;20048;-64
2022/10/26 10:42:52;;;;;;;21.15;3.88;;;;;;;;;;5045853;28;20036;-65
2022/10/26 10:45:20;;;;;;;7.72;3.50;;;;;;;;;;5039440;28;20046;-65
2022/10/26 10:47:58;;;;;;;9.00;3.33;;;;;;;;;;5077973;28;20507;-65
2022/10/26 10:50:24;;;;;;;8.13;3.75;;;;;;;;;;5041053;28;20124;-65
2022/10/26 10:52:51;;;;;;;11.32;4.25;;;;;;;;;;5039842;28;20072;-65
2022/10/26 10:55:23;;;;;;;8.18;3.42;;;;;;;;;;5040749;28;20037;-65
2022/10/26 10:58:15;;;;;;;8.65;3.25;;;;;;;;;;5040495;28;20036;-65
2022/10/26 11:00:43;;;;;;;12.15;3.63;;;;;;;;;;5041831;28;20051;-65
2022/10/26 11:03:13;;;;;;;8.27;3.35;;;;;;;;;;5039790;28;20102;-65
2022/10/26 11:05:47;;;;;;;14.82;3.65;;;;;;;;;;5042489;28;20053;-65
2022/10/26 11:08:20;;;;;;;9.57;3.17;;;;;;;;;;5075045;28;20052;-65
2022/10/26 11:10:53;;;;;;;10.32;2.90;;;;;;;;;;5041807;28;20045;-65
2022/10/26 11:13:24;;;;;;;10.13;3.33;;;;;;;;;;5062364;28;20052;-65
2022/10/26 11:15:54;;;;;;;7.20;3.13;;;;;;;;;;5041219;28;20481;-65
2022/10/26 11:18:24;;;;;;;8.43;2.70;;;;;;;;;;5046194;28;20467;-65
2022/10/26 11:20:53;;;;;;;8.65;3.00;;;;;;;;;;5037324;28;20132;-65
2022/10/26 11:23:25;;;;;;;8.23;3.92;;;;;;;;;;5043531;28;20059;-65
2022/10/26 11:25:54;;;;;;;8.80;3.37;;;;;;;;;;5075554;28;20081;-65
2022/10/26 11:28:24;;;;;;;8.15;3.40;;;;;;;;;;5043649;28;20152;-65
2022/10/26 11:30:54;;;;;;;6.57;3.67;;;;;;;;;;5044012;28;20041;-65
2022/10/26 11:33:24;;;;;;;7.13;3.00;;;;;;;;;;5043674;28;20045;-65
2022/10/26 11:35:55;;;;;;;10.20;3.33;;;;;;;;;;5040507;28;20128;-65
2022/10/26 11:38:31;;;;;;;8.75;3.60;;;;;;;;;;5044673;28;20052;-65
2022/10/26 11:40:58;;;;;;;6.63;3.08;;;;;;;;;;5046600;28;20037;-65
2022/10/26 11:43:41;;;;;;;10.18;3.28;;;;;;;;;;5042559;28;20120;-65
2022/10/26 11:46:26;;;;;;;9.60;3.58;;;;;;;;;;5040429;28;20459;-65
2022/10/26 11:49:11;;;;;;;8.63;3.47;;;;;;;;;;5036163;28;20040;-65
2022/10/26 11:51:41;;;;;;;11.18;3.65;;;;;;;;;;5046128;28;20047;-65
2022/10/26 11:54:10;;;;;;;15.52;4.22;;;;;;;;;;5071764;28;20132;-65
2022/10/26 11:56:54;;;;;;;9.80;3.95;;;;;;;;;;5039243;28;20135;-65
2022/10/26 11:59:22;;;;;;;7.85;3.80;;;;;;;;;;5038674;28;20077;-65
2022/10/26 12:01:53;;;;;;;9.50;4.25;;;;;;;;;;5045338;28;20041;-65
2022/10/26 12:04:21;;;;;;;11.57;4.15;;;;;;;;;;5040675;28;20041;-65
2022/10/26 12:06:48;;;;;;;9.57;5.13;;;;;;;;;;5046925;28;20485;-65
2022/10/26 12:09:19;;;;;;;11.05;4.78;;;;;;;;;;5048188;28;20068;-65
2022/10/26 12:11:52;;;;;;;12.30;4.53;;;;;;;;;;5075862;28;20408;-65
2022/10/26 12:14:27;;;;;;;10.95;4.70;;;;;;;;;;5065324;28;20171;-65
2022/10/26 12:17:09;;;;;;;9.43;4.30;;;;;;;;;;5037092;28;20037;-65
2022/10/26 12:19:48;;;;;;;15.80;4.50;;;;;;;;;;5046543;28;20048;-65
2022/10/26 12:22:15;;;;;;;11.82;4.78;;;;;;;;;;5041780;28;20450;-65
2022/10/26 12:24:44;;;;;;;7.85;4.22;;;;;;;;;;5044254;28;20400;-65
2022/10/26 12:27:36;;;;;;;11.80;4.32;;;;;;;;;;5078453;28;20072;-65
2022/10/26 12:30:23;;;;;;;10.75;4.65;;;;;;;;;;5043142;28;20044;-64
2022/10/26 12:32:51;;;;;;;14.45;4.50;;;;;;;;;;5062581;28;20067;-65
2022/10/26 12:35:26;;;;;;;9.68;4.63;;;;;;;;;;5043478;28;20107;-65
2022/10/26 12:37:52;;;;;;;8.93;4.20;;;;;;;;;;5047019;28;20066;-64
2022/10/26 12:40:31;;;;;;;11.48;4.30;;;;;;;;;;5048871;28;20072;-64
2022/10/26 12:43:17;;;;;;;10.05;4.32;;;;;;;;;;5044178;28;20056;-64
2022/10/26 12:45:45;;;;;;;12.30;4.40;;;;;;;;;;5041635;28;20041;-65
2022/10/26 12:48:21;;;;;;;12.45;4.60;;;;;;;;;;5076821;28;20047;-65
2022/10/26 12:50:48;;;;;;;13.93;5.97;;;;;;;;;;5045280;28;20055;-65
2022/10/26 12:53:17;;;;;;;13.35;5.28;;;;;;;;;;5047372;28;20144;-65
2022/10/26 12:55:46;;;;;;;13.43;5.68;;;;;;;;;;5046394;28;20123;-65
2022/10/26 12:58:15;;;;;;;13.05;5.38;;;;;;;;;;5043189;28;20549;-65
2022/10/26 13:00:47;;;;;;;15.57;6.50;;;;;;;;;;5042286;28;20140;-65
2022/10/26 13:03:32;;;;;;;12.30;5.65;;;;;;;;;;5044604;28;20045;-63
2022/10/26 13:06:17;;;;;;;10.90;5.57;;;;;;;;;;5045570;28;20167;-64
2022/10/26 13:08:47;;;;;;;13.82;5.22;;;;;;;;;;5045898;28;20473;-64
2022/10/26 13:11:29;;;;;;;10.70;5.30;;;;;;;;;;5045784;28;20041;-64
2022/10/26 13:13:58;;;;;;;12.90;5.70;;;;;;;;;;5044500;28;20444;-64
2022/10/26 13:16:26;;;;;;;17.20;5.45;;;;;;;;;;5043754;28;20128;-65
2022/10/26 13:18:52;;;;;;;11.32;4.90;;;;;;;;;;5041387;28;20033;-65
2022/10/26 13:21:20;;;;;;;11.55;5.55;;;;;;;;;;5075122;28;20115;-65
2022/10/26 13:23:56;;;;;;;9.85;4.78;;;;;;;;;;5044986;28;20045;-65
2022/10/26 13:26:24;;;;;;;12.82;5.47;;;;;;;;;;5075485;28;20445;-65
2022/10/26 13:28:51;;;;;;;17.77;5.65;;;;;;;;;;5038831;28;20082;-65
2022/10/26 13:31:17;;;;;;;10.35;4.95;;;;;;;;;;5041367;28;20037;-65
2022/10/26 13:33:44;;;;;;;13.23;5.53;;;;;;;;;;5041853;28;20049;-65
2022/10/26 13:36:17;;;;;;;11.70;5.65;;;;;;;;;;5038380;28;20076;-65
2022/10/26 13:38:45;;;;;;;10.32;4.97;;;;;;;;;;5037764;28;20052;-65
2022/10/26 13:41:17;;;;;;;16.73;6.30;;;;;;;;;;5038424;28;20102;-65
2022/10/26 13:43:43;;;;;;;16.98;5.28;;;;;;;;;;5039983;28;20079;-64
2022/10/26 13:46:17;;;;;;;11.18;4.70;;;;;;;;;;5039139;28;20095;-64
2022/10/26 13:48:45;;;;;;;11.93;5.50;;;;;;;;;;5037326;28;20095;-65
2022/10/26 13:51:21;;;;;;;9.88;4.55;;;;;;;;;;5036453;28;20403;-65
2022/10/26 13:53:51;;;;;;;10.15;3.83;;;;;;;;;;5035947;28;20059;-65
2022/10/26 13:56:22;;;;;;;13.23;4.65;;;;;;;;;;5039175;28;20052;-65
2022/10/26 13:58:57;;;;;;;20.65;4.65;;;;;;;;;;5039664;28;20060;-65
2022/10/26 14:01:25;;;;;;;9.90;3.90;;;;;;;;;;5038352;28;20065;-65
2022/10/26 14:03:51;;;;;;;12.48;3.50;;;;;;;;;;5069627;28;20044;-65
2022/10/26 14:06:22;;;;;;;8.90;3.40;;;;;;;;;;5041154;28;20120;-65
2022/10/26 14:08:50;;;;;;;10.88;3.30;;;;;;;;;;5041333;28;20037;-65
2022/10/26 14:11:17;;;;;;;17.02;4.45;;;;;;;;;;5041123;28;20064;-65
2022/10/26 14:13:45;;;;;;;12.10;3.22;;;;;;;;;;5037903;28;20454;-65
2022/10/26 14:16:13;;;;;;;7.90;3.50;;;;;;;;;;5071647;28;20053;-65
2022/10/26 14:18:40;;;;;;;10.77;3.72;;;;;;;;;;5038590;28;20076;-65
2022/10/26 14:21:12;;;;;;;12.25;3.78;;;;;;;;;;5039315;28;20053;-65
2022/10/26 14:23:46;;;;;;;10.52;2.92;;;;;;;;;;5039790;28;20492;-65
2022/10/26 14:26:19;;;;;;;11.50;3.53;;;;;;;;;;5040484;28;20059;-65
2022/10/26 14:28:49;;;;;;;10.10;3.38;;;;;;;;;;5041460;28;20060;-65
2022/10/26 14:31:23;;;;;;;8.02;3.47;;;;;;;;;;5038949;28;20053;-65
2022/10/26 14:33:50;;;;;;;8.73;3.30;;;;;;;;;;5040903;28;20040;-65
2022/10/26 14:36:17;;;;;;;10.20;3.42;;;;;;;;;;5040208;28;20055;-65
2022/10/26 14:38:46;;;;;;;10.63;4.13;;;;;;;;;;5040348;28;20386;-65